createdAt,value
2018-12-27T00:00:42.824Z,499.65
2018-12-27T00:01:42.858Z,499.23
2018-12-27T00:02:42.870Z,499.04
2018-12-27T00:03:42.820Z,499.19
2018-12-27T00:04:42.864Z,498.42
2018-12-27T00:05:42.833Z,498.4
2018-12-27T00:06:42.827Z,498.78
2018-12-27T00:07:42.858Z,498.14
2018-12-27T00:08:42.840Z,498.16
2018-12-27T00:09:42.845Z,498.75
2018-12-27T00:10:42.851Z,497.97
2018-12-27T00:11:42.847Z,497.45
2018-12-27T00:12:42.839Z,497.88
2018-12-27T00:13:42.834Z,497.12
2018-12-27T00:14:42.904Z,496.32
2018-12-27T00:15:42.834Z,495.2
2018-12-27T00:16:42.869Z,495.61
2018-12-27T00:17:42.845Z,494.59
2018-12-27T00:18:42.866Z,494.35
2018-12-27T00:19:42.858Z,494.15
2018-12-27T00:20:42.842Z,493.69
2018-12-27T00:21:42.857Z,493.13
2018-12-27T00:22:42.854Z,492.04
2018-12-27T00:23:42.845Z,491.84
2018-12-27T00:24:42.915Z,492.15
2018-12-27T00:25:42.883Z,491.56
2018-12-27T00:26:42.856Z,492.32
2018-12-27T00:27:42.848Z,491.23
2018-12-27T00:28:42.867Z,491.01
2018-12-27T00:29:42.861Z,490.44
2018-12-27T00:30:42.919Z,489.93
2018-12-27T00:31:42.889Z,489.29
2018-12-27T00:32:42.859Z,489.47
2018-12-27T00:33:42.878Z,487.39
2018-12-27T00:34:42.884Z,487.16
2018-12-27T00:35:42.856Z,486.71
2018-12-27T00:36:43.193Z,486.3
2018-12-27T00:37:42.877Z,485.32
2018-12-27T00:38:42.875Z,485.3
2018-12-27T00:45:21.678Z,484.61
2018-12-27T00:46:21.697Z,484.67
2018-12-27T00:47:21.657Z,485.1
2018-12-27T00:48:21.739Z,483.87
2018-12-27T00:49:21.706Z,484.07
2018-12-27T00:50:21.696Z,483.86
2018-12-27T00:51:21.669Z,483.84
2018-12-27T00:52:21.730Z,483.64
2018-12-27T00:53:21.677Z,483.2
2018-12-27T00:54:21.677Z,483.21
2018-12-27T00:55:21.710Z,482.56
2018-12-27T00:56:21.683Z,483.19
2018-12-27T00:57:21.797Z,483.2
2018-12-27T00:58:21.694Z,483.79
2018-12-27T00:59:21.662Z,484.6
2018-12-27T01:00:21.677Z,484.61
2018-12-27T01:01:21.693Z,484.44
2018-12-27T01:02:21.680Z,484.62
2018-12-27T01:03:21.686Z,484.61
2018-12-27T01:04:21.714Z,484.43
2018-12-27T01:05:21.689Z,484.6
2018-12-27T01:06:21.693Z,485.19
2018-12-27T01:07:21.702Z,485.45
2018-12-27T01:08:21.733Z,485.45
2018-12-27T01:09:21.712Z,485.56
2018-12-27T01:10:21.689Z,486.64
2018-12-27T01:11:21.695Z,486.85
2018-12-27T01:12:21.704Z,487.22
2018-12-27T01:13:21.729Z,487.48
2018-12-27T01:14:21.736Z,487.27
2018-12-27T01:15:21.719Z,488.72
2018-12-27T01:16:21.727Z,489.56
2018-12-27T01:17:21.701Z,489.81
2018-12-27T01:18:21.696Z,490.81
2018-12-27T01:19:21.702Z,491.44
2018-12-27T01:20:21.736Z,492.24
2018-12-27T01:21:21.720Z,492.44
2018-12-27T01:22:21.736Z,494.03
2018-12-27T01:23:21.705Z,494.44
2018-12-27T01:24:21.726Z,494.83
2018-12-27T01:25:21.724Z,495.64
2018-12-27T01:29:53.086Z,496.24
2018-12-27T01:36:33.257Z,494.95
2018-12-27T01:37:33.252Z,494.97
2018-12-27T01:38:33.300Z,493.79
2018-12-27T01:39:33.250Z,493.75
2018-12-27T01:40:33.235Z,492.96
2018-12-27T01:41:33.244Z,491.93
2018-12-27T01:42:33.252Z,491.51
2018-12-27T01:43:33.274Z,491.69
2018-12-27T01:44:33.274Z,491.11
2018-12-27T01:45:33.239Z,491.6
2018-12-27T01:46:33.252Z,491.37
2018-12-27T01:47:33.282Z,490.37
2018-12-27T01:48:33.287Z,490.79
2018-12-27T01:49:33.274Z,490.39
2018-12-27T01:50:33.311Z,490.98
2018-12-27T01:51:33.274Z,491.37
2018-12-27T01:52:33.621Z,490.75
2018-12-27T01:53:33.306Z,490.36
2018-12-27T01:54:33.276Z,491
2018-12-27T01:55:33.256Z,490.56
2018-12-27T01:56:33.300Z,491
2018-12-27T01:57:33.282Z,490.6
2018-12-27T01:58:33.275Z,491.27
2018-12-27T01:59:33.276Z,490.86
2018-12-27T02:00:33.273Z,491.68
2018-12-27T02:01:33.310Z,492.07
2018-12-27T02:08:11.531Z,494.11
2018-12-27T02:09:11.502Z,494.05
2018-12-27T02:10:11.520Z,495.09
2018-12-27T02:11:11.508Z,495.25
2018-12-27T02:12:11.492Z,496.05
2018-12-27T02:13:11.510Z,496.83
2018-12-27T02:14:11.501Z,497.19
2018-12-27T02:15:11.531Z,498.28
2018-12-27T02:16:11.507Z,498.63
2018-12-27T02:17:11.506Z,499.05
2018-12-27T02:18:11.509Z,499.84
2018-12-27T02:22:40.174Z,502.43
2018-12-27T02:23:40.163Z,503.08
2018-12-27T02:24:40.194Z,502.49
2018-12-27T02:25:40.169Z,503.3
2018-12-27T02:26:40.184Z,503.25
2018-12-27T02:27:40.153Z,503.05
2018-12-27T02:28:40.209Z,503.29
2018-12-27T02:29:40.198Z,503.8
2018-12-27T02:30:40.195Z,503.79
2018-12-27T02:31:40.220Z,503.8
2018-12-27T02:32:40.192Z,504.17
2018-12-27T02:33:40.181Z,504
2018-12-27T02:34:40.161Z,503.29
2018-12-27T02:39:09.374Z,502.06
2018-12-27T02:40:09.380Z,502.06
2018-12-27T02:41:09.377Z,501.86
2018-12-27T02:42:09.377Z,501.86
2018-12-27T02:43:09.347Z,502.2
2018-12-27T02:44:09.378Z,501.37
2018-12-27T02:45:09.342Z,501.79
2018-12-27T02:49:39.031Z,500.81
2018-12-27T02:50:39.076Z,500.6
2018-12-27T02:51:39.015Z,499.59
2018-12-27T02:52:39.041Z,499.2
2018-12-27T02:53:39.062Z,498.18
2018-12-27T02:54:39.031Z,497.56
2018-12-27T02:55:39.040Z,496
2018-12-27T02:56:39.021Z,494.9
2018-12-27T02:57:39.036Z,495.28
2018-12-27T02:58:39.022Z,494.04
2018-12-27T02:59:39.030Z,493.61
2018-12-27T03:00:39.025Z,493.8
2018-12-27T03:01:39.071Z,494.06
2018-12-27T03:02:39.053Z,492.99
2018-12-27T03:03:43.732Z,493.81
2018-12-27T03:04:39.087Z,493.38
2018-12-27T03:05:39.046Z,493.99
2018-12-27T03:06:39.043Z,493.56
2018-12-27T03:07:39.058Z,493.78
2018-12-27T03:08:39.057Z,493.14
2018-12-27T03:09:39.070Z,493.99
2018-12-27T03:10:39.059Z,493.95
2018-12-27T03:11:39.050Z,493.97
2018-12-27T03:12:39.066Z,494.16
2018-12-27T03:13:39.051Z,493.73
2018-12-27T03:14:39.089Z,494.4
2018-12-27T03:19:08.672Z,494.43
2018-12-27T03:20:08.693Z,495.04
2018-12-27T03:21:08.687Z,494.65
2018-12-27T03:22:08.630Z,495.2
2018-12-27T03:23:08.637Z,495.4
2018-12-27T03:24:08.629Z,495.18
2018-12-27T03:25:08.636Z,496.2
2018-12-27T03:26:08.654Z,495.95
2018-12-27T03:27:08.637Z,496.78
2018-12-27T03:28:08.660Z,496.53
2018-12-27T03:29:08.637Z,497.29
2018-12-27T03:30:08.635Z,496.68
2018-12-27T03:31:08.639Z,496.06
2018-12-27T03:32:08.728Z,495.06
2018-12-27T03:33:08.731Z,494.39
2018-12-27T03:39:50.351Z,489.93
2018-12-27T03:40:50.367Z,490.15
2018-12-27T03:41:50.340Z,489.96
2018-12-27T03:42:50.324Z,490.57
2018-12-27T03:43:50.353Z,490.49
2018-12-27T03:44:50.355Z,490.35
2018-12-27T03:49:19.701Z,487.63
2018-12-27T03:50:19.580Z,486.76
2018-12-27T03:51:19.537Z,487.81
2018-12-27T03:52:19.552Z,487.19
2018-12-27T03:53:19.521Z,487.84
2018-12-27T03:54:19.553Z,487.61
2018-12-27T03:55:19.577Z,487.21
2018-12-27T03:56:19.558Z,487.14
2018-12-27T03:57:19.551Z,487.98
2018-12-27T03:58:19.584Z,488.22
2018-12-27T03:59:19.535Z,487.21
2018-12-27T04:00:19.558Z,488.19
2018-12-27T04:01:19.564Z,487.57
2018-12-27T04:02:19.556Z,488.37
2018-12-27T04:03:19.569Z,488.37
2018-12-27T04:04:19.557Z,488.77
2018-12-27T04:05:19.563Z,489.36
2018-12-27T04:09:50.006Z,490.73
2018-12-27T04:10:50.019Z,490.7
2018-12-27T04:11:49.990Z,491.16
2018-12-27T04:12:50.002Z,491.68
2018-12-27T04:17:20.441Z,493.33
2018-12-27T04:18:20.409Z,492.65
2018-12-27T04:19:20.429Z,493.36
2018-12-27T04:20:20.406Z,492.91
2018-12-27T04:21:20.431Z,492.3
2018-12-27T04:22:20.394Z,491.29
2018-12-27T04:23:20.447Z,490.46
2018-12-27T04:24:20.435Z,489.88
2018-12-27T04:25:20.418Z,489.11
2018-12-27T04:26:20.414Z,488.79
2018-12-27T04:27:20.431Z,488.51
2018-12-27T04:28:20.401Z,488.23
2018-12-27T04:29:20.430Z,489.16
2018-12-27T04:30:20.435Z,488.28
2018-12-27T04:31:20.395Z,489.01
2018-12-27T04:32:20.452Z,489.89
2018-12-27T04:33:20.411Z,489.46
2018-12-27T04:34:20.399Z,489.79
2018-12-27T04:35:20.421Z,490.03
2018-12-27T04:36:20.420Z,490.82
2018-12-27T04:37:20.456Z,490.62
2018-12-27T04:38:20.425Z,490.52
2018-12-27T04:39:20.444Z,490.5
2018-12-27T04:40:20.444Z,490.73
2018-12-27T04:41:20.417Z,491.34
2018-12-27T04:42:20.453Z,491.57
2018-12-27T04:43:20.432Z,490.52
2018-12-27T04:44:20.452Z,491.37
2018-12-27T04:45:20.419Z,490.68
2018-12-27T04:50:38.148Z,490.46
2018-12-27T04:50:50.802Z,490.21
2018-12-27T04:51:50.769Z,489.85
2018-12-27T04:52:50.906Z,490.14
2018-12-27T04:53:50.813Z,490.52
2018-12-27T04:54:50.777Z,490.49
2018-12-27T04:55:50.796Z,490.71
2018-12-27T04:56:50.790Z,490.36
2018-12-27T04:57:51.141Z,490.92
2018-12-27T04:58:51.495Z,491.35
2018-12-27T04:59:50.810Z,491.47
2018-12-27T05:00:50.818Z,491.85
2018-12-27T05:01:50.792Z,491.87
2018-12-27T05:02:50.803Z,492.07
2018-12-27T05:03:50.801Z,492.41
2018-12-27T05:04:50.812Z,492.15
2018-12-27T05:05:50.797Z,492.33
2018-12-27T05:06:50.797Z,492.22
2018-12-27T05:07:50.794Z,492.16
2018-12-27T05:08:50.793Z,492.61
2018-12-27T05:09:50.802Z,492.62
2018-12-27T05:10:50.844Z,493.23
2018-12-27T05:11:50.798Z,493.81
2018-12-27T05:12:50.819Z,493.55
2018-12-27T05:13:50.807Z,494.4
2018-12-27T05:14:50.844Z,495.2
2018-12-27T05:15:50.814Z,495.25
2018-12-27T05:16:50.820Z,495.25
2018-12-27T05:17:50.826Z,495.67
2018-12-27T05:18:50.805Z,495.28
2018-12-27T05:19:50.841Z,495.73
2018-12-27T05:20:50.825Z,495.7
2018-12-27T05:21:50.835Z,495.98
2018-12-27T05:22:50.848Z,496.9
2018-12-27T05:23:50.844Z,496.31
2018-12-27T05:24:50.830Z,497.34
2018-12-27T05:25:50.814Z,497.93
2018-12-27T05:26:50.825Z,498.75
2018-12-27T05:27:50.855Z,499.17
2018-12-27T05:28:50.833Z,499.32
2018-12-27T05:29:50.828Z,500.28
2018-12-27T05:30:50.821Z,501.07
2018-12-27T05:31:51.718Z,501.71
2018-12-27T05:32:50.833Z,501.87
2018-12-27T05:33:50.832Z,502.48
2018-12-27T05:34:50.838Z,502.73
2018-12-27T05:35:50.848Z,502.7
2018-12-27T05:36:52.231Z,503.5
2018-12-27T05:37:50.881Z,503.7
2018-12-27T05:38:50.861Z,503.3
2018-12-27T05:39:50.851Z,504.15
2018-12-27T05:40:50.874Z,503.89
2018-12-27T05:41:50.842Z,503.46
2018-12-27T05:42:50.864Z,504.03
2018-12-27T05:43:50.841Z,504.46
2018-12-27T05:44:50.844Z,503.83
2018-12-27T05:45:50.850Z,503.25
2018-12-27T05:46:50.865Z,503.22
2018-12-27T05:47:50.888Z,503.5
2018-12-27T05:48:50.853Z,504.08
2018-12-27T05:49:50.859Z,503.67
2018-12-27T05:50:50.884Z,503.88
2018-12-27T05:51:50.854Z,503.51
2018-12-27T05:52:50.878Z,503.24
2018-12-27T05:53:50.859Z,503.31
2018-12-27T05:54:50.863Z,503.4
2018-12-27T05:55:50.862Z,503.11
2018-12-27T05:56:50.859Z,503.3
2018-12-27T05:57:50.888Z,503.87
2018-12-27T05:58:50.865Z,503.29
2018-12-27T05:59:50.873Z,503.27
2018-12-27T06:00:50.887Z,502.5
2018-12-27T06:01:50.914Z,502.48
2018-12-27T06:02:50.878Z,502.04
2018-12-27T06:03:50.890Z,501.87
2018-12-27T06:04:50.914Z,502.09
2018-12-27T06:05:50.904Z,501.65
2018-12-27T06:06:50.894Z,501.24
2018-12-27T06:07:50.884Z,500.9
2018-12-27T06:08:50.882Z,500.31
2018-12-27T06:09:50.913Z,499.83
2018-12-27T06:10:50.908Z,500.92
2018-12-27T06:11:50.912Z,500.66
2018-12-27T06:12:50.935Z,500.49
2018-12-27T06:13:50.894Z,499.61
2018-12-27T06:14:50.879Z,500.04
2018-12-27T06:15:50.915Z,499.22
2018-12-27T06:16:50.893Z,498.21
2018-12-27T06:17:50.899Z,497.72
2018-12-27T06:18:50.911Z,497.37
2018-12-27T06:19:50.909Z,496.44
2018-12-27T06:20:50.936Z,496.39
2018-12-27T06:21:50.927Z,496.01
2018-12-27T06:22:50.921Z,495.2
2018-12-27T06:23:50.906Z,493.91
2018-12-27T06:24:50.940Z,494.09
2018-12-27T06:25:50.929Z,493.73
2018-12-27T06:26:50.909Z,493.27
2018-12-27T06:27:50.907Z,492.47
2018-12-27T06:28:50.923Z,491.45
2018-12-27T06:29:50.933Z,491.17
2018-12-27T06:30:50.934Z,490.52
2018-12-27T06:31:50.934Z,490.14
2018-12-27T06:32:50.942Z,490.11
2018-12-27T06:33:50.926Z,489.39
2018-12-27T06:34:50.930Z,488.89
2018-12-27T06:35:50.934Z,488.62
2018-12-27T06:36:50.928Z,488.37
2018-12-27T06:37:50.926Z,488.7
2018-12-27T06:38:50.962Z,488.04
2018-12-27T06:39:50.957Z,488.19
2018-12-27T06:40:50.943Z,488.18
2018-12-27T06:41:50.964Z,488.19
2018-12-27T06:42:50.941Z,488.85
2018-12-27T06:43:50.937Z,489.69
2018-12-27T06:44:50.945Z,489.87
2018-12-27T06:45:50.942Z,490.5
2018-12-27T06:46:50.966Z,490.44
2018-12-27T06:47:50.964Z,490.01
2018-12-27T06:48:50.943Z,490.01
2018-12-27T06:49:50.961Z,490.42
2018-12-27T06:50:50.962Z,489.84
2018-12-27T06:51:50.964Z,489.59
2018-12-27T06:52:51.252Z,489.77
2018-12-27T06:59:30.495Z,490.77
2018-12-27T07:00:30.475Z,490.92
2018-12-27T07:01:30.462Z,490.76
2018-12-27T07:02:30.491Z,490.79
2018-12-27T07:03:30.495Z,491.4
2018-12-27T07:04:30.488Z,489.71
2018-12-27T07:05:30.512Z,489.93
2018-12-27T07:06:30.480Z,489.36
2018-12-27T07:07:30.513Z,489.31
2018-12-27T07:08:30.572Z,489.56
2018-12-27T07:09:30.517Z,489.5
2018-12-27T07:10:30.788Z,489.25
2018-12-27T07:17:10.110Z,489.82
2018-12-27T07:18:10.084Z,490.07
2018-12-27T07:19:10.094Z,489.41
2018-12-27T07:20:10.064Z,488.03
2018-12-27T07:21:10.063Z,487.6
2018-12-27T07:22:10.118Z,487.05
2018-12-27T07:23:10.113Z,485.81
2018-12-27T07:24:10.068Z,485.03
2018-12-27T07:25:10.078Z,484.28
2018-12-27T07:26:10.081Z,483.91
2018-12-27T07:27:10.092Z,482.97
2018-12-27T07:28:10.097Z,483.09
2018-12-27T07:29:10.105Z,481.52
2018-12-27T07:30:10.110Z,481.75
2018-12-27T07:31:10.074Z,480.32
2018-12-27T07:32:10.126Z,479.02
2018-12-27T07:33:10.075Z,479.25
2018-12-27T07:34:10.110Z,477.33
2018-12-27T07:35:10.090Z,476.77
2018-12-27T07:36:10.135Z,477.17
2018-12-27T07:37:10.103Z,475.34
2018-12-27T07:38:10.110Z,474.38
2018-12-27T07:39:10.092Z,473.26
2018-12-27T07:40:10.097Z,472.06
2018-12-27T07:41:10.088Z,471.6
2018-12-27T07:42:10.110Z,471.24
2018-12-27T07:43:10.124Z,470
2018-12-27T07:44:10.108Z,469.79
2018-12-27T07:45:10.102Z,468.17
2018-12-27T07:49:38.931Z,465.84
2018-12-27T07:50:38.916Z,466.34
2018-12-27T07:51:38.933Z,466.36
2018-12-27T07:52:38.923Z,466.5
2018-12-27T07:53:38.941Z,466.96
2018-12-27T07:54:38.936Z,466.72
2018-12-27T07:55:38.939Z,467.45
2018-12-27T07:56:38.914Z,467.83
2018-12-27T07:57:38.908Z,469.33
2018-12-27T07:58:38.934Z,469.65
2018-12-27T07:59:38.924Z,471.13
2018-12-27T08:00:38.967Z,471.51
2018-12-27T08:01:38.923Z,473.22
2018-12-27T08:02:38.925Z,473.83
2018-12-27T08:03:38.959Z,474.4
2018-12-27T08:04:38.911Z,475.36
2018-12-27T08:05:38.914Z,476.96
2018-12-27T08:06:38.948Z,477.82
2018-12-27T08:07:38.933Z,478.58
2018-12-27T08:08:39.073Z,480.23
2018-12-27T08:09:38.938Z,481.61
2018-12-27T08:10:38.946Z,483.25
2018-12-27T08:11:38.948Z,485.49
2018-12-27T08:12:38.972Z,487.88
2018-12-27T08:13:38.958Z,489.66
2018-12-27T08:14:38.927Z,491.56
2018-12-27T08:15:38.961Z,493.61
2018-12-27T08:16:38.958Z,495.61
2018-12-27T08:17:38.963Z,496.39
2018-12-27T08:18:38.950Z,498.63
2018-12-27T08:19:38.958Z,499.78
2018-12-27T08:20:38.959Z,501.18
2018-12-27T08:21:38.965Z,502.35
2018-12-27T08:22:38.950Z,503.61
2018-12-27T08:23:38.957Z,503.95
2018-12-27T08:24:38.954Z,505.38
2018-12-27T08:25:38.960Z,505.73
2018-12-27T08:26:38.942Z,506.71
2018-12-27T08:27:38.973Z,506.93
2018-12-27T08:28:38.995Z,507.49
2018-12-27T08:29:38.975Z,507.57
2018-12-27T08:30:38.974Z,507.92
2018-12-27T08:31:38.990Z,508.54
2018-12-27T08:32:38.983Z,508.93
2018-12-27T08:33:38.978Z,510.47
2018-12-27T08:34:38.998Z,511.26
2018-12-27T08:35:38.977Z,511.82
2018-12-27T08:36:38.987Z,513.19
2018-12-27T08:37:38.977Z,515.56
2018-12-27T08:38:38.973Z,516.73
2018-12-27T08:39:39.011Z,519.08
2018-12-27T08:40:39.000Z,520.64
2018-12-27T08:41:38.997Z,521.99
2018-12-27T08:42:38.985Z,523.74
2018-12-27T08:43:38.979Z,525.34
2018-12-27T08:44:38.991Z,527.48
2018-12-27T08:45:39.309Z,529.54
2018-12-27T08:46:39.001Z,531.21
2018-12-27T08:47:39.078Z,533.34
2018-12-27T08:48:39.007Z,534.1
2018-12-27T08:49:39.001Z,535.49
2018-12-27T08:50:39.008Z,536.26
2018-12-27T08:55:55.603Z,538.01
2018-12-27T08:56:08.232Z,538.2
2018-12-27T08:57:08.290Z,537.61
2018-12-27T08:58:08.260Z,537.59
2018-12-27T08:59:08.223Z,536.84
2018-12-27T09:00:08.252Z,536.7
2018-12-27T09:01:08.253Z,535.34
2018-12-27T09:02:08.208Z,535.61
2018-12-27T09:03:08.214Z,535.3
2018-12-27T09:04:08.246Z,535.84
2018-12-27T09:05:08.242Z,535.62
2018-12-27T09:06:08.244Z,536.43
2018-12-27T09:07:08.255Z,536.55
2018-12-27T09:08:08.225Z,537
2018-12-27T09:09:08.205Z,537.79
2018-12-27T09:10:08.238Z,537.03
2018-12-27T09:11:08.308Z,536.56
2018-12-27T09:12:08.295Z,536.95
2018-12-27T09:13:08.280Z,537.52
2018-12-27T09:14:08.266Z,537.17
2018-12-27T09:15:08.298Z,536.25
2018-12-27T09:16:08.247Z,536.98
2018-12-27T09:17:08.264Z,537.69
2018-12-27T09:18:08.287Z,536.86
2018-12-27T09:19:08.233Z,537.99
2018-12-27T09:20:08.268Z,538.39
2018-12-27T09:21:08.308Z,539.17
2018-12-27T09:22:08.298Z,539.88
2018-12-27T09:23:08.243Z,540.34
2018-12-27T09:24:08.298Z,540.95
2018-12-27T09:25:08.271Z,541.88
2018-12-27T09:26:08.303Z,542.43
2018-12-27T09:27:08.286Z,542.56
2018-12-27T09:28:08.322Z,542.16
2018-12-27T09:29:08.325Z,542.54
2018-12-27T09:30:08.309Z,542.45
2018-12-27T09:31:08.306Z,544.12
2018-12-27T09:32:08.321Z,544.51
2018-12-27T09:33:08.284Z,545.17
2018-12-27T09:34:08.296Z,545.7
2018-12-27T09:35:08.272Z,545.81
2018-12-27T09:36:08.264Z,546.77
2018-12-27T09:37:08.283Z,546.07
2018-12-27T09:38:08.278Z,546.69
2018-12-27T09:39:09.000Z,546.3
2018-12-27T09:40:08.261Z,546.18
2018-12-27T09:41:08.286Z,546.52
2018-12-27T09:42:08.255Z,546.57
2018-12-27T09:43:08.278Z,547.25
2018-12-27T09:44:08.280Z,548.73
2018-12-27T09:45:08.358Z,548.22
2018-12-27T09:46:08.300Z,549.18
2018-12-27T09:47:08.321Z,549.36
2018-12-27T09:48:08.282Z,550.26
2018-12-27T09:49:08.340Z,550.85
2018-12-27T09:50:08.302Z,551.37
2018-12-27T09:51:08.301Z,552.43
2018-12-27T09:52:08.395Z,553.15
2018-12-27T09:53:08.295Z,553.51
2018-12-27T09:54:08.323Z,554.4
2018-12-27T09:55:08.305Z,555.59
2018-12-27T09:56:08.326Z,556.27
2018-12-27T09:57:08.311Z,557.83
2018-12-27T09:58:08.288Z,559.04
2018-12-27T09:59:08.318Z,559.36
2018-12-27T10:00:08.301Z,559.59
2018-12-27T10:01:08.376Z,558.91
2018-12-27T10:02:08.322Z,558.58
2018-12-27T10:03:08.322Z,559.37
2018-12-27T10:04:08.366Z,559.14
2018-12-27T10:05:08.305Z,559.66
2018-12-27T10:06:08.356Z,560.22
2018-12-27T10:07:08.293Z,561.22
2018-12-27T10:08:08.337Z,562.42
2018-12-27T10:09:08.331Z,562.37
2018-12-27T10:10:08.301Z,562.97
2018-12-27T10:12:28.076Z,564.61
2018-12-27T10:13:28.018Z,565.35
2018-12-27T10:14:28.022Z,565.86
2018-12-27T10:15:28.081Z,566.68
2018-12-27T10:16:28.033Z,566.23
2018-12-27T10:17:28.058Z,567.36
2018-12-27T10:18:28.070Z,567.7
2018-12-27T10:19:28.036Z,567.89
2018-12-27T10:20:28.053Z,567.99
2018-12-27T10:21:28.074Z,569.06
2018-12-27T10:22:28.043Z,569.75
2018-12-27T10:23:28.044Z,569.57
2018-12-27T10:24:28.040Z,569.72
2018-12-27T10:25:28.077Z,571.25
2018-12-27T10:26:28.065Z,572.63
2018-12-27T10:27:28.104Z,572.71
2018-12-27T10:28:28.052Z,574.52
2018-12-27T10:29:28.130Z,575.23
2018-12-27T10:30:28.056Z,576.71
2018-12-27T10:31:28.063Z,577.22
2018-12-27T10:32:28.074Z,578.59
2018-12-27T10:33:28.082Z,579.21
2018-12-27T10:34:28.052Z,579.96
2018-12-27T10:35:28.102Z,581.56
2018-12-27T10:36:28.071Z,582.55
2018-12-27T10:37:28.092Z,584.07
2018-12-27T10:38:28.084Z,584.96
2018-12-27T10:39:28.106Z,587.13
2018-12-27T10:40:28.082Z,588.44
2018-12-27T10:41:28.088Z,589.38
2018-12-27T10:42:28.070Z,590.26
2018-12-27T10:43:28.087Z,591.35
2018-12-27T10:44:28.074Z,593.71
2018-12-27T10:45:28.082Z,595.54
2018-12-27T10:46:28.096Z,596.86
2018-12-27T10:47:28.075Z,598.31
2018-12-27T10:48:28.105Z,600.74
2018-12-27T10:49:28.081Z,602.7
2018-12-27T10:50:28.072Z,605.24
2018-12-27T10:51:28.116Z,607.68
2018-12-27T10:52:28.097Z,609.99
2018-12-27T10:53:28.110Z,612.15
2018-12-27T10:54:28.114Z,614.14
2018-12-27T10:55:28.094Z,616.31
2018-12-27T10:56:28.113Z,618.06
2018-12-27T10:57:28.092Z,619.69
2018-12-27T10:58:28.103Z,621.13
2018-12-27T10:59:29.503Z,622.59
2018-12-27T11:00:28.128Z,622.91
2018-12-27T11:01:28.105Z,625.26
2018-12-27T11:02:28.107Z,625.59
2018-12-27T11:03:30.605Z,626.78
2018-12-27T11:04:28.172Z,627.9
2018-12-27T11:05:28.121Z,628.37
2018-12-27T11:06:28.167Z,629.96
2018-12-27T11:07:28.145Z,631.22
2018-12-27T11:08:28.110Z,631.56
2018-12-27T11:09:28.116Z,632.21
2018-12-27T11:10:28.121Z,633.07
2018-12-27T11:11:28.123Z,634.91
2018-12-27T11:12:28.135Z,635.69
2018-12-27T11:13:28.124Z,636.3
2018-12-27T11:14:28.135Z,637.35
2018-12-27T11:15:28.112Z,638.54
2018-12-27T11:16:28.141Z,639.46
2018-12-27T11:17:28.122Z,639.61
2018-12-27T11:18:28.529Z,640.66
2018-12-27T11:19:28.163Z,640.64
2018-12-27T11:20:28.187Z,640.02
2018-12-27T11:21:28.121Z,640.96
2018-12-27T11:22:28.145Z,641.12
2018-12-27T11:23:28.190Z,640.72
2018-12-27T11:24:28.136Z,641.07
2018-12-27T11:25:28.146Z,641.38
2018-12-27T11:26:28.142Z,641.04
2018-12-27T11:27:28.146Z,641.33
2018-12-27T11:28:28.144Z,641.93
2018-12-27T11:29:28.168Z,641.84
2018-12-27T11:30:28.186Z,642.54
2018-12-27T11:31:28.156Z,642.15
2018-12-27T11:32:28.150Z,642.83
2018-12-27T11:33:28.221Z,642.51
2018-12-27T11:34:28.172Z,642.03
2018-12-27T11:35:28.167Z,640.98
2018-12-27T11:36:28.157Z,639.79
2018-12-27T11:37:28.152Z,638.57
2018-12-27T11:38:28.166Z,637.45
2018-12-27T11:39:28.164Z,636.98
2018-12-27T11:40:28.173Z,636.01
2018-12-27T11:41:28.155Z,635.64
2018-12-27T11:42:31.474Z,635.29
2018-12-27T11:43:28.155Z,634.49
2018-12-27T11:44:28.199Z,633.43
2018-12-27T11:45:28.153Z,633.24
2018-12-27T11:46:28.182Z,633.09
2018-12-27T11:47:28.181Z,631.97
2018-12-27T11:48:28.197Z,631.63
2018-12-27T11:49:28.216Z,631.45
2018-12-27T11:50:29.116Z,629.92
2018-12-27T11:51:28.174Z,629.1
2018-12-27T11:52:28.175Z,629.44
2018-12-27T11:53:28.193Z,628.55
2018-12-27T11:54:28.297Z,628.54
2018-12-27T11:55:28.184Z,627.28
2018-12-27T11:56:28.187Z,627.29
2018-12-27T11:57:28.190Z,627.64
2018-12-27T11:58:28.182Z,627.72
2018-12-27T11:59:28.204Z,627.67
2018-12-27T12:00:28.194Z,628.01
2018-12-27T12:01:28.241Z,628.13
2018-12-27T12:02:31.167Z,628.51
2018-12-27T12:03:28.194Z,629.2
2018-12-27T12:04:28.232Z,628.77
2018-12-27T12:05:28.239Z,628.1
2018-12-27T12:06:28.202Z,628.62
2018-12-27T12:13:08.872Z,626.74
2018-12-27T12:14:08.813Z,627.66
2018-12-27T12:15:08.824Z,627.61
2018-12-27T12:16:08.803Z,627.33
2018-12-27T12:17:09.171Z,627.12
2018-12-27T12:18:08.843Z,627.8
2018-12-27T12:19:08.841Z,628.33
2018-12-27T12:20:08.804Z,628.87
2018-12-27T12:21:08.782Z,629.05
2018-12-27T12:22:08.885Z,630.41
2018-12-27T12:23:08.914Z,631.15
2018-12-27T12:24:08.887Z,632.43
2018-12-27T12:25:08.836Z,632.75
2018-12-27T12:26:08.856Z,633.03
2018-12-27T12:27:08.874Z,633.25
2018-12-27T12:28:08.875Z,633.49
2018-12-27T12:29:08.801Z,633.09
2018-12-27T12:30:08.816Z,632.57
2018-12-27T12:31:08.811Z,632.18
2018-12-27T12:32:08.802Z,631.69
2018-12-27T12:33:08.815Z,631.76
2018-12-27T12:34:08.823Z,632
2018-12-27T12:35:08.822Z,631.93
2018-12-27T12:36:10.762Z,631.76
2018-12-27T12:37:13.882Z,631.57
2018-12-27T12:38:08.857Z,631.33
2018-12-27T12:39:08.815Z,631.87
2018-12-27T12:40:08.815Z,632.41
2018-12-27T12:41:08.881Z,632.22
2018-12-27T12:42:08.849Z,633.67
2018-12-27T12:43:08.881Z,635.06
2018-12-27T12:44:08.905Z,635.26
2018-12-27T12:45:09.056Z,636.01
2018-12-27T12:46:09.018Z,637.29
2018-12-27T12:47:08.934Z,637.8
2018-12-27T12:48:09.040Z,638.17
2018-12-27T12:49:08.837Z,639.03
2018-12-27T12:50:08.865Z,639.7
2018-12-27T12:51:08.817Z,640.97
2018-12-27T12:52:08.850Z,642.56
2018-12-27T12:53:09.286Z,643.58
2018-12-27T12:54:08.905Z,643.97
2018-12-27T12:55:08.907Z,644.47
2018-12-27T12:56:08.961Z,645.22
2018-12-27T12:57:08.860Z,645.46
2018-12-27T12:58:08.853Z,646.13
2018-12-27T12:59:08.839Z,646.66
2018-12-27T13:00:08.938Z,647.16
2018-12-27T13:01:08.949Z,646.83
2018-12-27T13:02:08.956Z,646.44
2018-12-27T13:03:08.904Z,647.7
2018-12-27T13:04:08.890Z,648.23
2018-12-27T13:05:08.855Z,649.32
2018-12-27T13:06:08.734Z,649.88
2018-12-27T13:07:08.844Z,650.71
2018-12-27T13:08:08.897Z,650.87
2018-12-27T13:09:08.944Z,651.07
2018-12-27T13:10:08.874Z,651.34
2018-12-27T13:11:08.877Z,651.23
2018-12-27T13:12:08.866Z,651.79
2018-12-27T13:13:08.856Z,652.35
2018-12-27T13:14:08.863Z,652.73
2018-12-27T13:15:08.902Z,652.89
2018-12-27T13:16:08.866Z,653.61
2018-12-27T13:17:08.922Z,653.94
2018-12-27T13:18:08.888Z,654.53
2018-12-27T13:19:08.872Z,654.48
2018-12-27T13:20:08.895Z,655.19
2018-12-27T13:21:08.875Z,654.98
2018-12-27T13:22:08.910Z,655.02
2018-12-27T13:23:08.875Z,655.98
2018-12-27T13:24:08.883Z,656.08
2018-12-27T13:25:08.899Z,655.82
2018-12-27T13:26:08.878Z,656.7
2018-12-27T13:27:08.898Z,657.46
2018-12-27T13:28:08.987Z,657.97
2018-12-27T13:29:08.914Z,658.9
2018-12-27T13:30:08.926Z,659.25
2018-12-27T13:31:19.233Z,660.24
2018-12-27T13:32:08.914Z,660.63
2018-12-27T13:33:08.903Z,660.73
2018-12-27T13:34:08.902Z,661.31
2018-12-27T13:35:08.930Z,661.23
2018-12-27T13:36:08.913Z,661.57
2018-12-27T13:37:08.931Z,662.03
2018-12-27T13:38:08.913Z,662.94
2018-12-27T13:39:08.906Z,662.92
2018-12-27T13:40:08.913Z,663.61
2018-12-27T13:41:08.906Z,663.65
2018-12-27T13:42:08.899Z,663.73
2018-12-27T13:43:08.925Z,664.78
2018-12-27T13:44:08.953Z,664.92
2018-12-27T13:45:08.905Z,665.62
2018-12-27T13:46:08.910Z,665.85
2018-12-27T13:47:08.951Z,666.03
2018-12-27T13:48:08.951Z,665.68
2018-12-27T13:49:08.933Z,666.35
2018-12-27T13:50:08.927Z,666.57
2018-12-27T13:51:08.935Z,666.77